Time;durP1;ratioP1;P1;durP2;ratioP2;P2;SDS_P1;SDS_P2;PMS_P1;PMS_P2;Temp;Humidity;BMP_temperature;BMP_pressure;BME280_temperature;BME280_humidity;BME280_pressure;Samples;Min_cycle;Max_cycle;Signal;HPM_P1;HPM_P2
2021/12/08 00:00:20;;;;;;;41.80;22.23;;;0.70;99.90;;;;;;5010264;28;20018;-54
2021/12/08 00:02:47;;;;;;;37.35;22.67;;;0.70;99.90;;;;;;5025420;28;20022;-55
2021/12/08 00:05:15;;;;;;;38.33;21.73;;;0.70;99.90;;;;;;5009549;28;20041;-57
2021/12/08 00:07:41;;;;;;;43.67;24.63;;;0.70;99.90;;;;;;4991476;28;20576;-58
2021/12/08 00:13:07;;;;;;;39.42;22.70;;;0.70;99.90;;;;;;5010118;28;20048;-56
2021/12/08 00:15:35;;;;;;;42.83;22.38;;;0.70;99.90;;;;;;5009662;28;20164;-59
2021/12/08 00:18:06;;;;;;;40.83;23.60;;;0.60;99.90;;;;;;5009433;28;20080;-57
2021/12/08 00:20:33;;;;;;;43.17;23.50;;;0.60;99.90;;;;;;5009148;28;20038;-59
2021/12/08 00:23:00;;;;;;;41.70;23.23;;;0.60;99.90;;;;;;4991953;28;20036;-57
2021/12/08 00:25:27;;;;;;;43.03;22.80;;;0.70;99.90;;;;;;5009624;28;20510;-57
2021/12/08 00:27:52;;;;;;;43.45;23.23;;;0.70;99.90;;;;;;5009551;28;20470;-55
2021/12/08 00:30:18;;;;;;;43.95;22.75;;;0.70;99.90;;;;;;4991839;28;20042;-57
2021/12/08 00:32:45;;;;;;;40.58;23.15;;;0.70;99.90;;;;;;5009521;28;20037;-58
2021/12/08 00:35:11;;;;;;;37.90;22.27;;;0.70;99.90;;;;;;5008835;28;20463;-59
2021/12/08 00:37:37;;;;;;;43.33;22.45;;;0.70;99.90;;;;;;5009490;28;20075;-58
2021/12/08 00:40:06;;;;;;;44.35;23.38;;;0.70;99.90;;;;;;5009116;28;20089;-55
2021/12/08 00:42:31;;;;;;;35.58;19.95;;;0.70;99.90;;;;;;5008752;28;20041;-56
2021/12/08 00:44:59;;;;;;;42.80;23.40;;;0.70;99.90;;;;;;5008752;28;20033;-55
2021/12/08 00:47:25;;;;;;;45.55;22.85;;;0.70;99.90;;;;;;5008633;28;20026;-59
2021/12/08 00:49:51;;;;;;;39.00;23.05;;;0.70;99.90;;;;;;4990835;28;20036;-56
2021/12/08 00:52:16;;;;;;;41.13;22.63;;;0.70;99.90;;;;;;4991170;28;20116;-56
2021/12/08 00:54:42;;;;;;;37.17;21.88;;;0.80;99.90;;;;;;5008990;28;20034;-58
2021/12/08 00:57:09;;;;;;;38.00;20.70;;;0.70;99.90;;;;;;5008996;28;20520;-57
2021/12/08 00:59:35;;;;;;;38.10;22.48;;;0.80;99.90;;;;;;5008907;28;20022;-55
2021/12/08 01:02:02;;;;;;;37.60;20.58;;;0.70;99.90;;;;;;5011555;28;20605;-55
2021/12/08 01:04:32;;;;;;;39.50;20.52;;;0.80;99.90;;;;;;5026139;28;20036;-56
2021/12/08 01:06:59;;;;;;;39.47;20.90;;;0.80;99.90;;;;;;5009136;28;20026;-57
2021/12/08 01:09:25;;;;;;;36.42;20.05;;;0.80;99.90;;;;;;4991145;28;20026;-58
2021/12/08 01:11:50;;;;;;;36.67;20.67;;;0.80;99.90;;;;;;5009156;28;20066;-53
2021/12/08 01:14:17;;;;;;;44.03;22.25;;;0.80;99.90;;;;;;5013845;28;20147;-57
2021/12/08 01:16:43;;;;;;;37.15;21.83;;;0.80;99.90;;;;;;5011157;28;20029;-54
2021/12/08 01:19:09;;;;;;;40.83;21.80;;;0.70;99.90;;;;;;5016600;28;20033;-57
2021/12/08 01:21:34;;;;;;;42.00;21.63;;;0.80;99.90;;;;;;5008492;28;20164;-53
2021/12/08 01:24:01;;;;;;;38.88;21.40;;;0.70;99.90;;;;;;5008980;28;20100;-55
2021/12/08 01:26:27;;;;;;;37.60;20.92;;;0.80;99.90;;;;;;5008584;28;20397;-53
2021/12/08 01:28:56;;;;;;;37.67;20.27;;;0.80;99.90;;;;;;5008643;28;20104;-53
2021/12/08 01:31:25;;;;;;;44.00;22.90;;;0.80;99.90;;;;;;5008820;28;20032;-55
2021/12/08 01:33:51;;;;;;;34.78;20.60;;;0.80;99.90;;;;;;4998222;28;20034;-56
2021/12/08 01:36:17;;;;;;;41.72;19.88;;;0.80;99.90;;;;;;5008410;28;20022;-57
2021/12/08 01:38:43;;;;;;;36.38;20.23;;;0.80;99.90;;;;;;5007985;28;20087;-54
2021/12/08 01:41:09;;;;;;;35.47;19.90;;;0.80;99.90;;;;;;5015105;28;20054;-56
2021/12/08 01:43:43;;;;;;;35.83;20.17;;;0.90;99.90;;;;;;5011428;28;20398;-54
2021/12/08 01:46:12;;;;;;;38.25;20.52;;;0.90;99.90;;;;;;5005281;28;20033;-57
2021/12/08 01:48:39;;;;;;;38.08;21.35;;;0.90;99.90;;;;;;5007158;28;20030;-51
2021/12/08 01:51:15;;;;;;;37.40;19.95;;;0.90;99.90;;;;;;5008569;28;20060;-55
2021/12/08 01:53:43;;;;;;;39.45;20.73;;;0.90;99.90;;;;;;5012309;28;20032;-54
2021/12/08 01:56:10;;;;;;;33.78;21.38;;;0.90;99.90;;;;;;5012036;28;20405;-57
2021/12/08 01:58:37;;;;;;;36.83;19.40;;;1.00;99.90;;;;;;5008512;28;20056;-53
2021/12/08 02:01:10;;;;;;;40.00;20.27;;;1.00;99.90;;;;;;5010104;28;20022;-56
2021/12/08 02:03:37;;;;;;;31.70;18.17;;;1.00;99.90;;;;;;5009829;28;20030;-54
2021/12/08 02:06:06;;;;;;;33.67;19.50;;;1.00;99.90;;;;;;5012097;28;20029;-52
2021/12/08 02:08:32;;;;;;;38.35;20.45;;;1.00;99.90;;;;;;5011465;28;20028;-54
2021/12/08 02:10:59;;;;;;;36.35;20.48;;;1.00;99.90;;;;;;5011670;28;20041;-54
2021/12/08 02:13:27;;;;;;;32.33;19.25;;;1.00;99.90;;;;;;5011645;28;20056;-57
2021/12/08 02:15:53;;;;;;;39.78;20.70;;;1.00;99.90;;;;;;5011725;28;20026;-55
2021/12/08 02:18:19;;;;;;;32.55;19.55;;;1.10;99.90;;;;;;5011243;28;20405;-55
2021/12/08 02:20:48;;;;;;;36.50;19.45;;;1.10;99.90;;;;;;5011973;28;20037;-52
2021/12/08 02:23:15;;;;;;;38.97;20.75;;;1.10;99.90;;;;;;5011222;28;20119;-55
2021/12/08 02:25:41;;;;;;;37.47;20.17;;;1.20;99.90;;;;;;5011519;28;20026;-54
2021/12/08 02:28:08;;;;;;;34.08;19.10;;;1.20;99.90;;;;;;5011323;28;20517;-56
2021/12/08 02:30:41;;;;;;;36.85;19.17;;;1.20;99.90;;;;;;5011304;28;20042;-53
2021/12/08 02:49:35;;;;;;;28.13;15.85;;;1.30;99.90;;;;;;5022422;28;20095;-53
2021/12/08 02:52:02;;;;;;;27.58;16.80;;;1.30;99.90;;;;;;5015001;28;20029;-56
2021/12/08 02:54:43;;;;;;;31.92;17.33;;;1.30;99.90;;;;;;4993066;28;20037;-55
2021/12/08 02:57:12;;;;;;;33.92;17.42;;;1.30;99.90;;;;;;5010895;28;20034;-55
2021/12/08 02:59:39;;;;;;;27.83;15.98;;;1.40;99.90;;;;;;5010306;28;20033;-52
2021/12/08 03:02:05;;;;;;;27.05;15.73;;;1.40;99.90;;;;;;5010319;28;20108;-54
2021/12/08 03:04:31;;;;;;;27.30;15.50;;;1.40;99.90;;;;;;5010439;28;20113;-55
2021/12/08 03:06:57;;;;;;;35.03;16.17;;;1.40;99.90;;;;;;5010983;28;20033;-55
2021/12/08 03:09:23;;;;;;;24.33;15.80;;;1.40;99.90;;;;;;5010572;28;20029;-55
2021/12/08 03:11:51;;;;;;;32.22;17.55;;;1.50;99.90;;;;;;5010623;28;20034;-55
2021/12/08 03:14:18;;;;;;;25.40;14.63;;;1.50;99.90;;;;;;5025382;28;20029;-55
2021/12/08 03:16:47;;;;;;;28.23;15.52;;;1.50;99.90;;;;;;5010322;28;20041;-55
2021/12/08 03:19:13;;;;;;;28.25;15.75;;;1.40;99.90;;;;;;5010249;28;20026;-56
2021/12/08 03:21:39;;;;;;;27.92;15.98;;;1.40;99.90;;;;;;5010485;28;20156;-54
2021/12/08 03:26:50;;;;;;;28.98;15.50;;;1.40;99.90;;;;;;5009853;28;20541;-56
2021/12/08 03:29:26;;;;;;;28.13;14.63;;;1.50;99.90;;;;;;5024296;28;20026;-53
2021/12/08 03:31:54;;;;;;;25.13;15.55;;;1.50;99.90;;;;;;4995262;28;20517;-55
2021/12/08 03:34:22;;;;;;;27.45;15.90;;;1.40;99.90;;;;;;5009855;28;20033;-55
2021/12/08 03:36:48;;;;;;;28.77;16.30;;;1.40;99.90;;;;;;5010401;28;20490;-52
2021/12/08 03:39:14;;;;;;;28.95;14.95;;;1.50;99.90;;;;;;5009456;28;20033;-52
2021/12/08 03:41:40;;;;;;;29.60;15.70;;;1.50;99.90;;;;;;5010136;28;20025;-53
2021/12/08 03:44:06;;;;;;;23.77;14.90;;;1.50;99.90;;;;;;5010367;28;20501;-55
2021/12/08 03:46:38;;;;;;;29.75;16.13;;;1.50;99.90;;;;;;5010169;28;20022;-53
2021/12/08 03:49:06;;;;;;;25.95;14.35;;;1.50;99.90;;;;;;5009908;28;20033;-51
2021/12/08 03:51:32;;;;;;;24.70;15.35;;;1.50;99.90;;;;;;5009720;28;20112;-52
2021/12/08 03:53:57;;;;;;;30.65;16.25;;;1.50;99.90;;;;;;5009821;28;20613;-55
2021/12/08 03:56:23;;;;;;;33.10;16.98;;;1.50;99.90;;;;;;5009798;28;20056;-55
2021/12/08 03:58:49;;;;;;;26.50;15.48;;;1.40;99.90;;;;;;5009415;28;20037;-54
2021/12/08 04:01:15;;;;;;;28.60;15.68;;;1.40;99.90;;;;;;5009888;28;20041;-51
2021/12/08 04:03:48;;;;;;;29.42;16.25;;;1.50;99.90;;;;;;5008942;28;20406;-53
2021/12/08 04:06:26;;;;;;;28.23;17.35;;;1.50;99.90;;;;;;5009453;28;20041;-57
2021/12/08 04:08:56;;;;;;;25.00;15.93;;;1.50;99.90;;;;;;5009837;28;20172;-56
2021/12/08 04:11:22;;;;;;;27.40;15.35;;;1.50;99.90;;;;;;5009441;28;20112;-52
2021/12/08 04:14:03;;;;;;;30.95;16.85;;;1.50;99.90;;;;;;4991699;28;20092;-53
2021/12/08 04:16:35;;;;;;;29.23;15.98;;;1.50;99.90;;;;;;5008715;28;20040;-53
2021/12/08 04:19:02;;;;;;;26.15;15.60;;;1.50;99.90;;;;;;5009239;28;20033;-52
2021/12/08 04:21:29;;;;;;;32.97;17.40;;;1.40;99.90;;;;;;4991860;28;20102;-55
2021/12/08 04:23:55;;;;;;;24.70;15.85;;;1.50;99.90;;;;;;5005596;28;20018;-57
2021/12/08 04:26:32;;;;;;;29.73;15.40;;;1.50;99.90;;;;;;5008812;28;20037;-55
2021/12/08 04:28:59;;;;;;;29.65;17.25;;;1.40;99.90;;;;;;5008699;28;20636;-56
2021/12/08 04:31:32;;;;;;;28.20;16.83;;;1.40;99.90;;;;;;4991461;28;20042;-56
2021/12/08 04:34:02;;;;;;;31.30;15.65;;;1.40;99.90;;;;;;5009004;28;20057;-54
2021/12/08 04:36:36;;;;;;;28.05;15.88;;;1.40;99.90;;;;;;4994767;28;20030;-57
2021/12/08 04:39:09;;;;;;;29.17;17.25;;;1.40;99.90;;;;;;5075705;23;20479;-60
2021/12/08 04:41:40;;;;;;;28.60;16.65;;;1.40;99.90;;;;;;5027594;28;20022;-59
2021/12/08 05:06:37;;;;;;;;;;;1.30;99.90;;;;;;5028902;28;20417;-54
2021/12/08 05:09:07;;;;;;;25.95;14.32;;;1.20;99.90;;;;;;5028911;28;20046;-53
2021/12/08 05:11:40;;;;;;;22.85;14.35;;;1.20;99.90;;;;;;5027093;28;20068;-52
2021/12/08 05:14:22;;;;;;;22.98;14.98;;;1.10;99.90;;;;;;5028027;28;20037;-54
2021/12/08 05:16:52;;;;;;;26.27;15.65;;;1.10;99.90;;;;;;5027934;28;20445;-55
2021/12/08 05:19:23;;;;;;;24.42;15.32;;;1.00;99.90;;;;;;5026580;28;20037;-53
2021/12/08 05:21:56;;;;;;;26.65;15.35;;;1.00;99.90;;;;;;5028316;28;20025;-55
2021/12/08 05:24:32;;;;;;;28.67;15.63;;;0.90;99.90;;;;;;5028111;28;20029;-51
2021/12/08 05:27:29;;;;;;;23.70;14.80;;;0.90;99.90;;;;;;5027044;28;20036;-52
2021/12/08 05:30:00;;;;;;;31.08;16.58;;;0.80;99.90;;;;;;5027545;28;20639;-52
2021/12/08 05:32:26;;;;;;;27.58;15.32;;;0.80;99.90;;;;;;5027948;28;20017;-52
2021/12/08 05:34:53;;;;;;;26.90;16.00;;;0.80;99.90;;;;;;5028242;28;20116;-52
2021/12/08 05:37:23;;;;;;;26.60;15.48;;;0.80;99.90;;;;;;5027993;28;20025;-52
2021/12/08 05:39:48;;;;;;;30.40;15.80;;;0.80;99.90;;;;;;5027611;28;20036;-54
2021/12/08 05:42:22;;;;;;;30.20;17.17;;;0.70;99.90;;;;;;5028101;28;20021;-55
2021/12/08 05:44:49;;;;;;;25.80;15.00;;;0.70;99.90;;;;;;5028396;28;20087;-54
2021/12/08 05:47:19;;;;;;;23.05;15.40;;;0.70;99.90;;;;;;5027770;28;20022;-51
2021/12/08 05:49:46;;;;;;;26.20;14.50;;;0.70;99.90;;;;;;5027955;28;20040;-50
2021/12/08 05:52:13;;;;;;;31.00;17.48;;;0.70;99.90;;;;;;5026826;28;20030;-54
2021/12/08 05:54:42;;;;;;;25.55;15.05;;;0.70;99.90;;;;;;5028041;28;20371;-57
2021/12/08 05:57:17;;;;;;;27.88;15.48;;;0.70;99.90;;;;;;5028448;28;20401;-51
2021/12/08 05:59:45;;;;;;;24.63;15.70;;;0.70;99.90;;;;;;5027230;28;20117;-55
2021/12/08 06:02:17;;;;;;;26.60;16.27;;;0.70;99.90;;;;;;5027684;28;20031;-54
2021/12/08 06:04:44;;;;;;;26.15;15.20;;;0.60;99.90;;;;;;5008578;28;20018;-54
2021/12/08 06:07:11;;;;;;;28.52;16.17;;;0.60;99.90;;;;;;5013172;28;20053;-51
2021/12/08 06:09:38;;;;;;;24.15;15.48;;;0.60;99.90;;;;;;5027382;28;20048;-54
2021/12/08 06:12:07;;;;;;;26.45;15.65;;;0.70;99.90;;;;;;5027831;28;20025;-53
2021/12/08 06:14:33;;;;;;;31.70;17.08;;;0.70;99.90;;;;;;5028153;28;20017;-49
2021/12/08 06:17:07;;;;;;;29.70;17.48;;;0.60;99.90;;;;;;5028193;28;20026;-55
2021/12/08 06:19:36;;;;;;;27.40;16.55;;;0.60;99.90;;;;;;5027856;28;20690;-51
2021/12/08 06:22:05;;;;;;;23.55;15.57;;;0.60;99.90;;;;;;5018812;28;20093;-53
2021/12/08 06:24:30;;;;;;;29.27;16.77;;;0.50;99.90;;;;;;5023767;28;20026;-48
2021/12/08 06:26:56;;;;;;;26.80;16.13;;;0.60;99.90;;;;;;5027278;28;20494;-50
2021/12/08 06:29:23;;;;;;;28.65;16.08;;;0.50;99.90;;;;;;5027766;28;20034;-52
2021/12/08 06:31:52;;;;;;;29.95;16.92;;;0.50;99.90;;;;;;5021653;28;20060;-47
2021/12/08 06:34:18;;;;;;;28.60;17.67;;;0.50;99.90;;;;;;5027594;28;20516;-55
2021/12/08 06:37:03;;;;;;;28.98;16.00;;;0.50;99.90;;;;;;5027569;28;20037;-49
2021/12/08 06:39:39;;;;;;;29.88;17.02;;;0.50;99.90;;;;;;5030942;28;20110;-53
2021/12/08 06:42:09;;;;;;;29.75;17.25;;;0.50;99.90;;;;;;5031301;28;20032;-49
2021/12/08 06:44:40;;;;;;;27.00;16.95;;;0.50;99.90;;;;;;5031181;28;20112;-50
2021/12/08 06:47:08;;;;;;;27.67;16.58;;;0.50;99.90;;;;;;5032356;28;20401;-50
2021/12/08 06:49:34;;;;;;;27.08;16.05;;;0.50;99.90;;;;;;5031031;28;20441;-49
2021/12/08 06:52:08;;;;;;;30.67;15.88;;;0.50;99.90;;;;;;5031173;28;20033;-54
2021/12/08 06:54:39;;;;;;;30.88;17.13;;;0.50;99.90;;;;;;5030866;28;20037;-51
2021/12/08 06:57:14;;;;;;;28.83;17.80;;;0.50;99.90;;;;;;5029548;28;20040;-47
2021/12/08 06:59:53;;;;;;;28.33;17.55;;;0.50;99.90;;;;;;5030622;28;20060;-46
2021/12/08 07:02:46;;;;;;;30.35;16.83;;;0.40;99.90;;;;;;5030647;28;20608;-53
2021/12/08 07:05:25;;;;;;;27.10;15.68;;;0.50;99.90;;;;;;5030965;28;20029;-50
2021/12/08 07:07:52;;;;;;;27.33;16.40;;;0.50;99.90;;;;;;5030500;28;20073;-50
2021/12/08 07:10:29;;;;;;;26.40;16.55;;;0.50;99.90;;;;;;5029243;28;20021;-51
2021/12/08 07:13:03;;;;;;;35.45;17.27;;;0.50;99.90;;;;;;5020866;28;20381;-49
2021/12/08 07:15:35;;;;;;;31.23;17.67;;;0.50;99.90;;;;;;5030473;28;20070;-53
2021/12/08 07:18:11;;;;;;;31.60;17.48;;;0.50;99.90;;;;;;5030310;28;20334;-55
2021/12/08 07:20:46;;;;;;;26.42;15.73;;;0.50;99.90;;;;;;5030419;28;20112;-53
2021/12/08 07:23:18;;;;;;;29.97;17.90;;;0.50;99.90;;;;;;5030573;28;20025;-46
2021/12/08 07:25:45;;;;;;;27.15;16.08;;;0.50;99.90;;;;;;5028968;28;20287;-49
2021/12/08 07:28:12;;;;;;;30.52;17.60;;;0.50;99.90;;;;;;5028929;28;20465;-47
2021/12/08 07:30:46;;;;;;;29.33;17.63;;;0.50;99.90;;;;;;5026142;28;20037;-51
2021/12/08 07:33:12;;;;;;;28.05;17.02;;;0.50;99.90;;;;;;5029772;28;20032;-52
2021/12/08 07:35:44;;;;;;;31.17;18.50;;;0.50;99.90;;;;;;5030266;28;20117;-50
2021/12/08 07:38:14;;;;;;;31.95;17.52;;;0.50;99.90;;;;;;5029853;28;20021;-51
2021/12/08 07:41:10;;;;;;;29.05;18.23;;;0.50;99.90;;;;;;5028202;28;20429;-53
2021/12/08 07:43:42;;;;;;;27.60;17.83;;;0.60;99.90;;;;;;5029920;28;20099;-53
2021/12/08 07:46:13;;;;;;;29.30;17.27;;;0.60;99.90;;;;;;5029439;28;20037;-52
2021/12/08 07:48:52;;;;;;;26.02;18.13;;;0.60;99.90;;;;;;5029382;28;20080;-53
2021/12/08 07:51:33;;;;;;;31.02;17.83;;;0.60;99.90;;;;;;5029203;28;20025;-54
2021/12/08 07:54:03;;;;;;;27.67;17.10;;;0.60;99.90;;;;;;5029858;28;20511;-48
2021/12/08 07:56:32;;;;;;;28.70;18.20;;;0.60;99.90;;;;;;5029290;28;20057;-50
2021/12/08 07:59:01;;;;;;;31.65;18.75;;;0.60;99.90;;;;;;5029388;28;20100;-46
2021/12/08 08:01:32;;;;;;;30.95;18.65;;;0.60;99.90;;;;;;5029260;28;20033;-55
2021/12/08 08:03:59;;;;;;;29.10;18.70;;;0.60;99.90;;;;;;5029891;28;20684;-48
2021/12/08 08:06:29;;;;;;;29.00;17.52;;;0.60;99.90;;;;;;5024834;28;20719;-53
2021/12/08 08:08:55;;;;;;;31.10;18.40;;;0.60;99.90;;;;;;5029877;28;20028;-54
2021/12/08 08:11:35;;;;;;;26.25;17.02;;;0.60;99.90;;;;;;5029200;28;20441;-51
2021/12/08 08:14:03;;;;;;;30.63;18.00;;;0.60;99.90;;;;;;5029522;28;20121;-48
2021/12/08 08:16:33;;;;;;;27.08;16.60;;;0.70;99.90;;;;;;5029477;28;20064;-49
2021/12/08 08:19:07;;;;;;;30.65;17.42;;;0.70;99.90;;;;;;5029228;28;20378;-52
2021/12/08 08:21:37;;;;;;;29.75;17.48;;;0.60;99.90;;;;;;5028033;28;20026;-56
2021/12/08 08:24:04;;;;;;;27.08;16.80;;;0.70;99.90;;;;;;5029117;28;20148;-53
2021/12/08 08:26:31;;;;;;;28.95;17.08;;;0.70;99.90;;;;;;5028973;28;20048;-57
2021/12/08 08:28:58;;;;;;;31.25;18.35;;;0.70;99.90;;;;;;5028763;28;20099;-52
2021/12/08 08:31:34;;;;;;;28.65;17.92;;;0.70;99.90;;;;;;5029167;28;20394;-54
2021/12/08 08:34:00;;;;;;;28.73;17.10;;;0.70;99.90;;;;;;5029054;28;20041;-50
2021/12/08 08:36:30;;;;;;;24.27;16.58;;;0.70;99.90;;;;;;5027918;28;20037;-50
2021/12/08 08:39:04;;;;;;;27.38;16.80;;;0.70;99.90;;;;;;5029001;28;20057;-53
2021/12/08 08:41:34;;;;;;;31.98;18.15;;;0.70;99.90;;;;;;5028945;28;20124;-51
2021/12/08 08:44:10;;;;;;;29.05;16.77;;;0.80;99.90;;;;;;5028559;28;20037;-55
2021/12/08 08:46:38;;;;;;;26.30;16.50;;;0.80;99.90;;;;;;5028814;28;20036;-49
2021/12/08 08:49:19;;;;;;;27.38;17.17;;;0.70;99.90;;;;;;5028229;28;20075;-55
2021/12/08 08:52:06;;;;;;;24.15;16.63;;;0.80;99.90;;;;;;5028584;28;20036;-52
2021/12/08 08:54:36;;;;;;;25.50;16.50;;;0.70;99.90;;;;;;5028654;28;20124;-50
2021/12/08 08:57:10;;;;;;;31.17;16.92;;;0.80;99.90;;;;;;5027994;28;20121;-56
2021/12/08 08:59:42;;;;;;;28.95;16.63;;;0.80;99.90;;;;;;5021912;28;20513;-53
2021/12/08 09:02:09;;;;;;;32.63;18.60;;;0.80;99.90;;;;;;5027704;28;20399;-51
2021/12/08 09:04:40;;;;;;;29.42;17.45;;;0.80;99.90;;;;;;5027783;28;20087;-53
2021/12/08 09:07:12;;;;;;;26.70;17.27;;;0.80;99.90;;;;;;5027864;28;20025;-53
2021/12/08 09:09:42;;;;;;;27.17;15.90;;;0.80;99.90;;;;;;5025008;28;20025;-49
2021/12/08 09:12:32;;;;;;;29.48;17.90;;;0.80;99.90;;;;;;5023869;28;20117;-52
2021/12/08 09:15:07;;;;;;;25.30;17.15;;;0.90;99.90;;;;;;5014965;28;20095;-51
2021/12/08 09:17:43;;;;;;;26.15;17.58;;;0.90;99.90;;;;;;5025276;28;20179;-49
2021/12/08 09:20:25;;;;;;;30.20;17.05;;;0.90;99.90;;;;;;5027463;28;20021;-55
2021/12/08 09:23:01;;;;;;;29.67;16.98;;;0.90;99.90;;;;;;5024119;28;20363;-53
2021/12/08 09:25:34;;;;;;;25.92;16.52;;;0.90;99.90;;;;;;5027087;28;20033;-50
2021/12/08 09:28:06;;;;;;;29.10;18.45;;;1.00;99.90;;;;;;5028028;28;20037;-53
2021/12/08 09:31:02;;;;;;;29.42;16.92;;;1.00;99.90;;;;;;5028858;28;20029;-52
2021/12/08 09:33:37;;;;;;;29.17;17.23;;;1.00;99.90;;;;;;5023292;28;20040;-53
2021/12/08 09:36:07;;;;;;;27.42;17.23;;;1.00;99.90;;;;;;5028736;28;20728;-51
2021/12/08 09:38:49;;;;;;;25.42;17.35;;;1.00;99.90;;;;;;5027721;28;20025;-50
2021/12/08 09:41:19;;;;;;;26.70;16.92;;;1.00;99.90;;;;;;5027879;28;20033;-53
2021/12/08 09:44:02;;;;;;;24.92;16.95;;;1.00;99.90;;;;;;5027550;28;20026;-50
2021/12/08 09:46:38;;;;;;;30.25;18.70;;;1.00;99.90;;;;;;5028364;28;20034;-51
2021/12/08 09:49:05;;;;;;;30.52;16.75;;;1.10;99.90;;;;;;5026131;28;20034;-54
2021/12/08 09:51:33;;;;;;;26.20;16.63;;;1.10;99.90;;;;;;5026586;28;20074;-52
2021/12/08 09:53:59;;;;;;;26.35;16.52;;;1.10;99.90;;;;;;5027678;28;20569;-51
2021/12/08 09:56:25;;;;;;;27.80;18.05;;;1.10;99.90;;;;;;5028041;28;20129;-55
2021/12/08 09:58:53;;;;;;;24.20;17.17;;;1.10;99.90;;;;;;5027535;28;20547;-49
2021/12/08 10:01:21;;;;;;;26.30;17.05;;;1.20;99.90;;;;;;5028502;28;20359;-54
2021/12/08 10:03:48;;;;;;;26.45;17.30;;;1.20;99.90;;;;;;5028101;28;20477;-53
2021/12/08 10:06:15;;;;;;;25.05;16.27;;;1.20;99.90;;;;;;5028398;28;20025;-57
2021/12/08 10:08:43;;;;;;;28.83;17.15;;;1.20;99.90;;;;;;5027116;28;20052;-53
2021/12/08 10:11:10;;;;;;;26.70;16.25;;;1.20;99.90;;;;;;5028740;28;20116;-52
2021/12/08 10:13:35;;;;;;;23.75;16.13;;;1.20;99.90;;;;;;5029766;28;20029;-52
2021/12/08 10:16:01;;;;;;;28.40;16.42;;;1.30;99.90;;;;;;5031716;28;20401;-55
2021/12/08 10:18:27;;;;;;;28.80;17.40;;;1.30;99.90;;;;;;5031508;28;20508;-53
2021/12/08 10:20:55;;;;;;;28.58;16.80;;;1.40;99.90;;;;;;5031685;28;20025;-55
2021/12/08 10:23:38;;;;;;;28.55;17.15;;;1.40;99.90;;;;;;5031907;28;20109;-54
2021/12/08 10:26:10;;;;;;;27.08;15.20;;;1.40;99.90;;;;;;5030141;28;20037;-48
2021/12/08 10:28:39;;;;;;;26.52;16.20;;;1.50;99.90;;;;;;5031009;28;20417;-52
2021/12/08 10:31:11;;;;;;;23.23;15.85;;;1.50;99.90;;;;;;5031343;28;20025;-54
2021/12/08 10:33:55;;;;;;;23.50;15.60;;;1.50;99.90;;;;;;5031734;28;20749;-54
2021/12/08 10:39:25;;;;;;;23.77;15.75;;;1.50;99.90;;;;;;5040663;23;20106;-60
2021/12/08 10:42:04;;;;;;;25.40;15.98;;;1.50;99.90;;;;;;4992443;28;20065;-59
2021/12/08 10:47:32;;;;;;;27.58;16.48;;;1.60;99.90;;;;;;4992922;28;20080;-57
2021/12/08 10:55:35;;;;;;;21.58;14.93;;;1.70;99.90;;;;;;4989621;28;20051;-57
2021/12/08 10:58:01;;;;;;;28.35;15.80;;;1.70;99.90;;;;;;4987759;28;20026;-54
2021/12/08 11:00:32;;;;;;;23.85;15.68;;;1.70;99.90;;;;;;4982324;28;20406;-59
2021/12/08 11:03:04;;;;;;;23.75;15.77;;;1.70;99.90;;;;;;4984174;28;20058;-56
2021/12/08 11:05:38;;;;;;;25.95;16.15;;;1.70;99.90;;;;;;4992579;28;20018;-59
2021/12/08 11:08:04;;;;;;;25.20;15.77;;;1.80;99.90;;;;;;4990301;28;20407;-55
2021/12/08 11:10:31;;;;;;;22.83;16.15;;;1.80;99.90;;;;;;4992070;28;20030;-58
2021/12/08 11:12:59;;;;;;;24.45;15.68;;;1.80;99.90;;;;;;4992722;28;20085;-56
2021/12/08 11:15:27;;;;;;;22.77;15.07;;;1.80;99.90;;;;;;4989588;28;20110;-59
2021/12/08 11:18:19;;;;;;;23.02;14.45;;;1.90;99.90;;;;;;4972312;28;20529;-55
2021/12/08 11:21:05;;;;;;;23.33;15.50;;;1.90;99.90;;;;;;4990202;28;20030;-59
2021/12/08 11:26:26;;;;;;;22.55;13.73;;;1.90;99.90;;;;;;4992539;28;20045;-60
2021/12/08 11:29:04;;;;;;;25.38;15.43;;;1.90;99.90;;;;;;5006233;28;20458;-59
2021/12/08 11:31:46;;;;;;;22.08;14.57;;;2.00;99.90;;;;;;4992251;28;20427;-60
2021/12/08 11:34:14;;;;;;;25.38;15.30;;;2.00;99.90;;;;;;4991420;28;20536;-59
2021/12/08 11:36:40;;;;;;;25.27;15.30;;;2.00;99.90;;;;;;4991790;28;20435;-58
2021/12/08 11:39:11;;;;;;;23.98;14.88;;;2.00;99.90;;;;;;4991258;28;20042;-58
2021/12/08 11:41:49;;;;;;;22.98;13.70;;;2.00;99.90;;;;;;4991686;28;20026;-59
2021/12/08 11:44:18;;;;;;;23.20;14.20;;;2.00;99.90;;;;;;4991657;28;20522;-59
2021/12/08 11:46:55;;;;;;;24.45;14.25;;;2.00;99.90;;;;;;4991792;28;20030;-59
2021/12/08 11:49:22;;;;;;;20.95;13.48;;;2.00;99.90;;;;;;4990997;28;20034;-58
2021/12/08 11:51:51;;;;;;;22.83;14.77;;;2.00;99.90;;;;;;4991497;28;20033;-57
2021/12/08 11:54:38;;;;;;;22.45;14.35;;;2.00;99.90;;;;;;4991709;28;20030;-58
2021/12/08 11:57:04;;;;;;;24.98;14.75;;;2.10;99.90;;;;;;4991669;28;20433;-58
2021/12/08 11:59:30;;;;;;;19.73;13.73;;;2.10;99.90;;;;;;4991034;28;20022;-58
2021/12/08 12:01:56;;;;;;;23.45;14.57;;;2.10;99.90;;;;;;4992818;28;20681;-56
2021/12/08 12:04:21;;;;;;;26.23;15.05;;;2.10;99.90;;;;;;4991565;28;20023;-58
2021/12/08 12:06:47;;;;;;;25.67;14.85;;;2.10;99.90;;;;;;4991447;28;20105;-55
2021/12/08 12:09:13;;;;;;;20.58;13.80;;;2.10;99.90;;;;;;4990708;28;20034;-58
2021/12/08 12:11:38;;;;;;;20.77;13.98;;;2.20;99.90;;;;;;4990906;28;20030;-58
2021/12/08 12:14:05;;;;;;;22.15;14.73;;;2.20;99.90;;;;;;4989306;28;20026;-57
2021/12/08 12:16:30;;;;;;;24.40;14.77;;;2.20;99.90;;;;;;4991383;28;20113;-59
2021/12/08 12:19:01;;;;;;;22.88;13.95;;;2.20;99.90;;;;;;4987785;28;20046;-57
2021/12/08 12:21:56;;;;;;;20.80;13.35;;;2.20;99.90;;;;;;4991013;28;20033;-59
2021/12/08 12:24:51;;;;;;;21.55;13.85;;;2.20;99.90;;;;;;4988815;28;20125;-54
2021/12/08 12:27:35;;;;;;;23.95;15.13;;;2.20;99.90;;;;;;4989109;28;20689;-56
2021/12/08 12:30:07;;;;;;;21.10;13.75;;;2.20;99.90;;;;;;4979270;28;20455;-55
2021/12/08 12:32:48;;;;;;;21.38;14.48;;;2.20;99.90;;;;;;4983679;28;20022;-56
2021/12/08 12:35:32;;;;;;;22.55;14.50;;;2.30;99.90;;;;;;4989554;28;20037;-55
2021/12/08 12:38:09;;;;;;;21.58;14.50;;;2.30;99.90;;;;;;4989726;28;20053;-58
2021/12/08 12:40:36;;;;;;;;;;;2.30;99.90;;;;;;4987550;28;20030;-57
2021/12/08 12:43:03;;;;;;;20.77;12.60;;;2.30;99.90;;;;;;4989094;28;19909;-57
2021/12/08 12:45:38;;;;;;;24.33;13.90;;;2.30;99.90;;;;;;4989711;28;20036;-56
2021/12/08 12:48:07;;;;;;;25.27;15.60;;;2.30;99.90;;;;;;4989079;28;20418;-59
2021/12/08 12:51:09;;;;;;;20.48;13.40;;;2.30;99.90;;;;;;4989669;28;20113;-58
2021/12/08 12:53:49;;;;;;;23.02;14.70;;;2.30;99.90;;;;;;4989595;28;20510;-57
2021/12/08 12:56:17;;;;;;;29.98;14.32;;;2.30;99.90;;;;;;4987985;28;20033;-56
2021/12/08 12:58:51;;;;;;;21.90;14.82;;;2.30;99.90;;;;;;4987726;28;20026;-58
2021/12/08 13:01:26;;;;;;;19.65;13.68;;;2.30;99.90;;;;;;4988759;28;20395;-59
2021/12/08 13:03:54;;;;;;;21.25;13.90;;;2.30;99.90;;;;;;4988726;28;20030;-57
2021/12/08 13:06:49;;;;;;;22.35;15.27;;;2.30;99.90;;;;;;4970711;28;20031;-56
2021/12/08 13:09:35;;;;;;;23.88;13.80;;;2.30;99.90;;;;;;4979818;28;20050;-57
2021/12/08 13:12:13;;;;;;;21.73;13.70;;;2.30;99.90;;;;;;4988277;28;20034;-56
2021/12/08 13:14:39;;;;;;;20.50;14.10;;;2.30;99.90;;;;;;4988996;28;20499;-58
2021/12/08 13:17:21;;;;;;;22.38;14.82;;;2.30;99.90;;;;;;4980569;28;20037;-57
2021/12/08 13:19:53;;;;;;;24.20;15.25;;;2.30;99.90;;;;;;4969610;28;20592;-59
2021/12/08 13:22:51;;;;;;;24.85;14.48;;;2.30;99.90;;;;;;4968296;28;20030;-54
2021/12/08 13:25:51;;;;;;;22.75;15.02;;;2.30;99.90;;;;;;4987969;28;20490;-57
2021/12/08 13:28:30;;;;;;;22.15;14.13;;;2.30;99.90;;;;;;4987013;28;20025;-57
2021/12/08 13:31:07;;;;;;;27.67;14.65;;;2.30;99.90;;;;;;4986461;28;20403;-57
2021/12/08 13:33:42;;;;;;;23.25;15.07;;;2.30;99.90;;;;;;4988338;28;20028;-56
2021/12/08 13:36:20;;;;;;;24.25;13.98;;;2.30;99.90;;;;;;4989251;28;20104;-56
2021/12/08 13:38:53;;;;;;;23.50;14.80;;;2.30;99.90;;;;;;4987975;28;20105;-57
2021/12/08 13:41:20;;;;;;;23.20;14.02;;;2.30;99.90;;;;;;4986853;28;20088;-56
2021/12/08 13:43:49;;;;;;;26.67;15.73;;;2.30;99.90;;;;;;4989140;28;20026;-55
2021/12/08 13:46:37;;;;;;;23.23;14.68;;;2.30;99.90;;;;;;4987520;28;20463;-56
2021/12/08 13:49:43;;;;;;;23.25;15.75;;;2.20;99.90;;;;;;4989426;28;20104;-56
2021/12/08 13:52:08;;;;;;;25.08;15.20;;;2.20;99.90;;;;;;4984300;28;20034;-57
2021/12/08 13:54:36;;;;;;;24.13;15.63;;;2.20;99.90;;;;;;4990713;28;20023;-54
2021/12/08 13:57:04;;;;;;;21.85;14.48;;;2.20;99.90;;;;;;4991929;28;20022;-54